sensor_id;sensor_type;location;lat;lon;timestamp;pressure;altitude;pressure_sealevel;temperature;humidity
44144;BME280;68165;51.920;4.492;2023-05-22T00:02:03;67692.28;;;16.55;100.00
44144;BME280;68165;51.920;4.492;2023-05-22T00:04:30;67688.91;;;16.52;100.00
44144;BME280;68165;51.920;4.492;2023-05-22T00:06:55;67684.44;;;16.48;100.00
44144;BME280;68165;51.920;4.492;2023-05-22T00:09:21;67679.53;;;16.46;100.00
44144;BME280;68165;51.920;4.492;2023-05-22T00:11:46;67673.25;;;16.38;100.00
44144;BME280;68165;51.920;4.492;2023-05-22T00:14:12;67673.78;;;16.39;100.00
44144;BME280;68165;51.920;4.492;2023-05-22T00:16:38;67674.91;;;16.40;100.00
44144;BME280;68165;51.920;4.492;2023-05-22T00:19:03;67678.13;;;16.40;100.00
44144;BME280;68165;51.920;4.492;2023-05-22T00:21:29;67671.69;;;16.39;100.00
44144;BME280;68165;51.920;4.492;2023-05-22T00:24:02;67676.59;;;16.41;100.00
44144;BME280;68165;51.920;4.492;2023-05-22T00:26:28;67671.56;;;16.37;100.00
44144;BME280;68165;51.920;4.492;2023-05-22T00:28:53;67665.38;;;16.31;100.00
44144;BME280;68165;51.920;4.492;2023-05-22T00:31:18;67671.69;;;16.39;100.00
44144;BME280;68165;51.920;4.492;2023-05-22T00:33:44;67673.25;;;16.38;100.00
44144;BME280;68165;51.920;4.492;2023-05-22T00:36:09;67670.03;;;16.38;100.00
44144;BME280;68165;51.920;4.492;2023-05-22T00:38:35;67675.47;;;16.40;100.00
44144;BME280;68165;51.920;4.492;2023-05-22T00:41:04;67671.69;;;16.39;100.00
44144;BME280;68165;51.920;4.492;2023-05-22T00:43:30;67672.81;;;16.40;100.00
44144;BME280;68165;51.920;4.492;2023-05-22T00:45:56;67677.16;;;16.42;100.00
44144;BME280;68165;51.920;4.492;2023-05-22T00:48:22;67676.59;;;16.41;100.00
44144;BME280;68165;51.920;4.492;2023-05-22T00:50:48;67683.31;;;16.47;100.00
44144;BME280;68165;51.920;4.492;2023-05-22T00:53:19;67682.91;;;16.49;100.00
44144;BME280;68165;51.920;4.492;2023-05-22T00:55:45;67691.31;;;16.57;100.00
44144;BME280;68165;51.920;4.492;2023-05-22T00:58:16;67693.75;;;16.61;100.00
44144;BME280;68165;51.920;4.492;2023-05-22T01:00:42;67701.44;;;16.66;100.00
44144;BME280;68165;51.920;4.492;2023-05-22T01:03:08;67703.91;;;16.63;100.00
44144;BME280;68165;51.920;4.492;2023-05-22T01:05:39;67701.28;;;16.63;100.00
44144;BME280;68165;51.920;4.492;2023-05-22T01:08:05;67695.09;;;16.58;100.00
44144;BME280;68165;51.920;4.492;2023-05-22T01:10:34;67688.91;;;16.52;100.00
44144;BME280;68165;51.920;4.492;2023-05-22T01:16:00;67684.28;;;16.46;100.00
44144;BME280;68165;51.920;4.492;2023-05-22T01:18:33;67678.13;;;16.40;100.00
44144;BME280;68165;51.920;4.492;2023-05-22T01:21:12;67672.13;;;16.37;100.00
44144;BME280;68165;51.920;4.492;2023-05-22T01:29:20;67672.81;;;16.40;100.00
44144;BME280;68165;51.920;4.492;2023-05-22T01:31:54;67664.25;;;16.30;100.00
44144;BME280;68165;51.920;4.492;2023-05-22T01:34:21;67654.72;;;16.21;100.00
44144;BME280;68165;51.920;4.492;2023-05-22T01:36:48;67650.09;;;16.15;100.00
44144;BME280;68165;51.920;4.492;2023-05-22T01:39:16;67648.00;;;16.15;100.00
44144;BME280;68165;51.920;4.492;2023-05-22T01:41:43;67648.56;;;16.16;100.00
44144;BME280;68165;51.920;4.492;2023-05-22T01:44:09;67648.72;;;16.18;100.00
44144;BME280;68165;51.920;4.492;2023-05-22T01:46:35;67644.78;;;16.15;100.00
44144;BME280;68165;51.920;4.492;2023-05-22T01:49:00;67648.56;;;16.16;100.00
44144;BME280;68165;51.920;4.492;2023-05-22T01:57:00;67650.09;;;16.15;100.00
44144;BME280;68165;51.920;4.492;2023-05-22T02:02:06;67645.91;;;16.16;100.00
44144;BME280;68165;51.920;4.492;2023-05-22T02:04:37;67649.13;;;16.16;100.00
44144;BME280;68165;51.920;4.492;2023-05-22T02:07:02;67651.38;;;16.18;100.00
44144;BME280;68165;51.920;4.492;2023-05-22T02:09:29;67644.78;;;16.15;100.00
44144;BME280;68165;51.920;4.492;2023-05-22T02:11:58;67640.31;;;16.11;100.00
44144;BME280;68165;51.920;4.492;2023-05-22T02:14:25;67649.69;;;16.17;100.00
44144;BME280;68165;51.920;4.492;2023-05-22T02:16:51;67647.84;;;16.13;100.00
44144;BME280;68165;51.920;4.492;2023-05-22T02:19:16;67644.41;;;16.17;100.00
44144;BME280;68165;51.920;4.492;2023-05-22T02:21:42;67654.56;;;16.19;100.00
44144;BME280;68165;51.920;4.492;2023-05-22T02:24:08;67647.03;;;16.17;100.00
44144;BME280;68165;51.920;4.492;2023-05-22T02:26:34;67651.94;;;16.19;100.00
44144;BME280;68165;51.920;4.492;2023-05-22T02:28:59;67654.56;;;16.19;100.00
44144;BME280;68165;51.920;4.492;2023-05-22T02:31:25;67644.97;;;16.17;100.00
44144;BME280;68165;51.920;4.492;2023-05-22T02:33:50;67648.16;;;16.18;100.00
44144;BME280;68165;51.920;4.492;2023-05-22T02:36:15;67644.78;;;16.15;100.00
44144;BME280;68165;51.920;4.492;2023-05-22T02:38:41;67641.44;;;16.12;100.00
44144;BME280;68165;51.920;4.492;2023-05-22T02:41:07;67639.34;;;16.12;100.00
44144;BME280;68165;51.920;4.492;2023-05-22T02:43:33;67648.56;;;16.16;100.00
44144;BME280;68165;51.920;4.492;2023-05-22T02:45:58;67645.78;;;16.13;100.00
44144;BME280;68165;51.920;4.492;2023-05-22T02:48:23;67640.31;;;16.11;100.00
44144;BME280;68165;51.920;4.492;2023-05-22T02:50:49;67645.91;;;16.16;100.00
44144;BME280;68165;51.920;4.492;2023-05-22T02:53:15;67645.91;;;16.16;100.00
44144;BME280;68165;51.920;4.492;2023-05-22T02:55:41;67647.28;;;16.12;100.00
44144;BME280;68165;51.920;4.492;2023-05-22T02:58:07;67644.47;;;16.10;100.00
44144;BME280;68165;51.920;4.492;2023-05-22T03:00:38;67638.06;;;16.09;100.00
44144;BME280;68165;51.920;4.492;2023-05-22T03:03:04;67635.28;;;16.06;100.00
44144;BME280;68165;51.920;4.492;2023-05-22T03:05:31;67633.59;;;16.05;100.00
44144;BME280;68165;51.920;4.492;2023-05-22T03:07:57;67632.06;;;16.06;100.00
44144;BME280;68165;51.920;4.492;2023-05-22T03:10:23;67633.44;;;16.02;100.00
44144;BME280;68165;51.920;4.492;2023-05-22T03:12:49;67635.53;;;16.02;100.00
44144;BME280;68165;51.920;4.492;2023-05-22T03:15:16;67626.88;;;15.99;100.00
44144;BME280;68165;51.920;4.492;2023-05-22T03:17:42;67628.56;;;16.00;100.00
44144;BME280;68165;51.920;4.492;2023-05-22T03:20:07;67631.38;;;16.03;100.00
44144;BME280;68165;51.920;4.492;2023-05-22T03:22:33;67638.63;;;16.09;100.00
44144;BME280;68165;51.920;4.492;2023-05-22T03:24:58;67638.63;;;16.09;100.00
44144;BME280;68165;51.920;4.492;2023-05-22T03:27:24;67644.25;;;16.14;100.00
44144;BME280;68165;51.920;4.492;2023-05-22T03:29:49;67655.28;;;16.22;100.00
44144;BME280;68165;51.920;4.492;2023-05-22T03:32:15;67657.53;;;16.24;100.00
44144;BME280;68165;51.920;4.492;2023-05-22T03:34:41;67657.53;;;16.24;100.00
44144;BME280;68165;51.920;4.492;2023-05-22T03:37:07;67659.38;;;16.28;100.00
44144;BME280;68165;51.920;4.492;2023-05-22T03:39:33;67658.81;;;16.27;100.00
44144;BME280;68165;51.920;4.492;2023-05-22T03:42:00;67660.50;;;16.29;100.00
44144;BME280;68165;51.920;4.492;2023-05-22T03:44:25;67660.50;;;16.29;100.00
44144;BME280;68165;51.920;4.492;2023-05-22T03:46:51;67670.25;;;16.33;100.00
44144;BME280;68165;51.920;4.492;2023-05-22T03:49:16;67670.25;;;16.33;100.00
44144;BME280;68165;51.920;4.492;2023-05-22T03:51:41;67673.47;;;16.33;100.00
44144;BME280;68165;51.920;4.492;2023-05-22T03:54:07;67665.38;;;16.31;100.00
44144;BME280;68165;51.920;4.492;2023-05-22T03:56:33;67664.97;;;16.33;100.00
44144;BME280;68165;51.920;4.492;2023-05-22T03:58:58;67669.72;;;16.32;100.00
44144;BME280;68165;51.920;4.492;2023-05-22T04:01:24;67663.44;;;16.34;100.00
44144;BME280;68165;51.920;4.492;2023-05-22T04:03:50;67664.97;;;16.33;100.00
44144;BME280;68165;51.920;4.492;2023-05-22T04:06:16;67664.97;;;16.33;100.00
44144;BME280;68165;51.920;4.492;2023-05-22T04:08:46;67665.38;;;16.31;100.00
44144;BME280;68165;51.920;4.492;2023-05-22T04:11:12;67667.22;;;16.35;100.00
44144;BME280;68165;51.920;4.492;2023-05-22T04:13:40;67672.13;;;16.37;100.00
44144;BME280;68165;51.920;4.492;2023-05-22T04:16:05;67670.03;;;16.38;100.00
44144;BME280;68165;51.920;4.492;2023-05-22T04:18:31;67678.84;;;16.43;100.00
44144;BME280;68165;51.920;4.492;2023-05-22T04:20:56;67675.78;;;16.45;100.00
44144;BME280;68165;51.920;4.492;2023-05-22T04:23:22;67678.03;;;16.47;100.00
44144;BME280;68165;51.920;4.492;2023-05-22T04:25:47;67677.84;;;16.45;100.00
44144;BME280;68165;51.920;4.492;2023-05-22T04:28:13;67683.72;;;16.45;100.00
44144;BME280;68165;51.920;4.492;2023-05-22T04:30:42;67678.28;;;16.43;100.00
44144;BME280;68165;51.920;4.492;2023-05-22T04:33:08;67679.53;;;16.46;100.00
44144;BME280;68165;51.920;4.492;2023-05-22T04:35:34;67680.09;;;16.47;100.00
44144;BME280;68165;51.920;4.492;2023-05-22T04:38:00;67673.94;;;16.41;100.00
44144;BME280;68165;51.920;4.492;2023-05-22T04:40:26;67681.78;;;16.48;100.00
44144;BME280;68165;51.920;4.492;2023-05-22T04:42:53;67687.22;;;16.51;100.00
44144;BME280;68165;51.920;4.492;2023-05-22T04:45:19;67692.44;;;16.58;100.00
44144;BME280;68165;51.920;4.492;2023-05-22T04:47:49;67697.91;;;16.60;100.00
44144;BME280;68165;51.920;4.492;2023-05-22T04:50:16;67699.19;;;16.64;100.00
44144;BME280;68165;51.920;4.492;2023-05-22T04:52:43;67712.34;;;16.71;100.00
44144;BME280;68165;51.920;4.492;2023-05-22T04:55:08;67723.72;;;16.84;100.00
44144;BME280;68165;51.920;4.492;2023-05-22T04:57:36;67732.69;;;16.92;100.00
44144;BME280;68165;51.920;4.492;2023-05-22T05:00:02;67739.00;;;17.00;100.00
44144;BME280;68165;51.920;4.492;2023-05-22T05:02:29;67744.59;;;17.05;100.00
44144;BME280;68165;51.920;4.492;2023-05-22T05:04:54;67760.72;;;17.17;100.00
44144;BME280;68165;51.920;4.492;2023-05-22T05:07:20;67771.94;;;17.27;100.00
44144;BME280;68165;51.920;4.492;2023-05-22T05:09:47;67778.25;;;17.35;100.00
44144;BME280;68165;51.920;4.492;2023-05-22T05:12:13;67785.00;;;17.41;100.00
44144;BME280;68165;51.920;4.492;2023-05-22T05:14:39;67796.22;;;17.51;100.00
44144;BME280;68165;51.920;4.492;2023-05-22T05:17:04;67800.31;;;17.58;100.00
44144;BME280;68165;51.920;4.492;2023-05-22T05:19:29;67815.31;;;17.69;100.00
44144;BME280;68165;51.920;4.492;2023-05-22T05:21:55;67826.53;;;17.79;99.98
44144;BME280;68165;51.920;4.492;2023-05-22T05:24:20;67842.66;;;17.91;99.02
44144;BME280;68165;51.920;4.492;2023-05-22T05:26:45;67850.09;;;18.00;98.24
44144;BME280;68165;51.920;4.492;2023-05-22T05:29:11;67857.25;;;18.04;97.74
44144;BME280;68165;51.920;4.492;2023-05-22T05:31:37;67864.69;;;18.13;97.22
44144;BME280;68165;51.920;4.492;2023-05-22T05:34:03;67880.25;;;18.25;96.37
44144;BME280;68165;51.920;4.492;2023-05-22T05:36:28;67877.03;;;18.24;95.56
44144;BME280;68165;51.920;4.492;2023-05-22T05:38:53;67876.47;;;18.24;95.45
44144;BME280;68165;51.920;4.492;2023-05-22T05:41:20;67881.94;;;18.26;95.19
44144;BME280;68165;51.920;4.492;2023-05-22T05:43:47;67889.81;;;18.33;94.61
44144;BME280;68165;51.920;4.492;2023-05-22T05:46:12;67890.09;;;18.39;94.14
44144;BME280;68165;51.920;4.492;2023-05-22T05:48:38;67884.91;;;18.31;94.41
44144;BME280;68165;51.920;4.492;2023-05-22T05:51:03;67880.81;;;18.25;94.36
44144;BME280;68165;51.920;4.492;2023-05-22T05:53:29;67879.84;;;18.27;94.53
44144;BME280;68165;51.920;4.492;2023-05-22T05:55:54;67867.25;;;18.20;94.73
44144;BME280;68165;51.920;4.492;2023-05-22T05:58:19;67870.28;;;18.18;94.62
44144;BME280;68165;51.920;4.492;2023-05-22T06:00:45;67860.78;;;18.10;94.79
44144;BME280;68165;51.920;4.492;2023-05-22T06:03:10;67851.22;;;18.01;95.45
44144;BME280;68165;51.920;4.492;2023-05-22T06:05:36;67846.72;;;17.97;95.41
44144;BME280;68165;51.920;4.492;2023-05-22T06:08:01;67848.81;;;17.97;95.46
44144;BME280;68165;51.920;4.492;2023-05-22T06:10:26;67844.91;;;17.93;95.81
44144;BME280;68165;51.920;4.492;2023-05-22T06:12:52;67852.03;;;17.97;95.83
44144;BME280;68165;51.920;4.492;2023-05-22T06:15:17;67843.91;;;17.94;95.64
44144;BME280;68165;51.920;4.492;2023-05-22T06:17:43;67855.16;;;18.05;95.78
44144;BME280;68165;51.920;4.492;2023-05-22T06:20:08;67865.09;;;18.11;95.97
44144;BME280;68165;51.920;4.492;2023-05-22T06:22:34;67880.81;;;18.25;95.49
44144;BME280;68165;51.920;4.492;2023-05-22T06:24:59;67898.38;;;18.44;95.28
44144;BME280;68165;51.920;4.492;2023-05-22T06:27:25;67935.44;;;18.77;94.49
44144;BME280;68165;51.920;4.492;2023-05-22T06:29:52;67980.38;;;19.17;92.83
44144;BME280;68165;51.920;4.492;2023-05-22T06:32:17;68028.72;;;19.61;90.82
44144;BME280;68165;51.920;4.492;2023-05-22T06:34:45;68074.66;;;20.00;89.52
44144;BME280;68165;51.920;4.492;2023-05-22T06:37:11;68107.09;;;20.27;87.59
44144;BME280;68165;51.920;4.492;2023-05-22T06:39:38;68120.91;;;20.44;86.23
44144;BME280;68165;51.920;4.492;2023-05-22T06:42:03;68145.69;;;20.66;84.64
44144;BME280;68165;51.920;4.492;2023-05-22T06:44:29;68172.69;;;20.91;83.30
44144;BME280;68165;51.920;4.492;2023-05-22T06:46:56;68192.50;;;21.11;82.25
44144;BME280;68165;51.920;4.492;2023-05-22T06:49:21;68217.13;;;21.31;80.91
44144;BME280;68165;51.920;4.492;2023-05-22T06:51:47;68244.00;;;21.52;79.19
44144;BME280;68165;51.920;4.492;2023-05-22T06:54:12;68257.50;;;21.65;78.19
44144;BME280;68165;51.920;4.492;2023-05-22T06:56:39;68261.59;;;21.71;77.68
44144;BME280;68165;51.920;4.492;2023-05-22T06:59:04;68253.13;;;21.63;77.34
44144;BME280;68165;51.920;4.492;2023-05-22T07:01:30;68241.31;;;21.52;77.65
44144;BME280;68165;51.920;4.492;2023-05-22T07:03:59;68219.94;;;21.33;78.16
44144;BME280;68165;51.920;4.492;2023-05-22T07:06:26;68214.19;;;21.26;78.37
44144;BME280;68165;51.920;4.492;2023-05-22T07:08:52;68216.28;;;21.25;77.99
44144;BME280;68165;51.920;4.492;2023-05-22T07:11:17;68213.19;;;21.27;78.22
44144;BME280;68165;51.920;4.492;2023-05-22T07:13:43;68215.59;;;21.32;77.69
44144;BME280;68165;51.920;4.492;2023-05-22T07:16:08;68220.38;;;21.31;77.57
44144;BME280;68165;51.920;4.492;2023-05-22T07:18:33;68223.16;;;21.34;77.70
44144;BME280;68165;51.920;4.492;2023-05-22T07:20:59;68226.56;;;21.37;77.68
44144;BME280;68165;51.920;4.492;2023-05-22T07:23:24;68227.25;;;21.40;77.41
44144;BME280;68165;51.920;4.492;2023-05-22T07:25:50;68220.78;;;21.29;78.32
44144;BME280;68165;51.920;4.492;2023-05-22T07:28:15;68207.00;;;21.22;78.63
44144;BME280;68165;51.920;4.492;2023-05-22T07:30:40;68201.94;;;21.17;78.45
44144;BME280;68165;51.920;4.492;2023-05-22T07:33:06;68224.84;;;21.35;78.62
44144;BME280;68165;51.920;4.492;2023-05-22T07:35:31;68245.69;;;21.54;77.84
44144;BME280;68165;51.920;4.492;2023-05-22T07:37:57;68271.56;;;21.77;76.80
44144;BME280;68165;51.920;4.492;2023-05-22T07:40:22;68281.28;;;21.88;75.78
44144;BME280;68165;51.920;4.492;2023-05-22T07:42:47;68275.09;;;21.83;75.53
44144;BME280;68165;51.920;4.492;2023-05-22T07:45:13;68263.13;;;21.70;75.89
44144;BME280;68165;51.920;4.492;2023-05-22T07:47:38;68265.81;;;21.79;76.07
44144;BME280;68165;51.920;4.492;2023-05-22T07:50:04;68293.13;;;21.99;75.69
44144;BME280;68165;51.920;4.492;2023-05-22T07:52:30;68333.66;;;22.35;74.21
44144;BME280;68165;51.920;4.492;2023-05-22T07:54:56;68368.03;;;22.66;72.85
44144;BME280;68165;51.920;4.492;2023-05-22T07:57:21;68391.72;;;22.88;70.88
44144;BME280;68165;51.920;4.492;2023-05-22T07:59:47;68400.72;;;22.96;70.63
44144;BME280;68165;51.920;4.492;2023-05-22T08:02:13;68413.66;;;23.07;69.83
44144;BME280;68165;51.920;4.492;2023-05-22T08:04:38;68427.19;;;23.19;69.76
44144;BME280;68165;51.920;4.492;2023-05-22T08:07:04;68442.97;;;23.34;69.11
44144;BME280;68165;51.920;4.492;2023-05-22T08:09:29;68457.78;;;23.49;68.40
44144;BME280;68165;51.920;4.492;2023-05-22T08:11:55;68469.06;;;23.59;67.30
44144;BME280;68165;51.920;4.492;2023-05-22T08:14:21;68488.66;;;23.75;67.26
44144;BME280;68165;51.920;4.492;2023-05-22T08:16:46;68484.28;;;23.73;67.30
44144;BME280;68165;51.920;4.492;2023-05-22T08:19:12;68507.25;;;23.91;66.96
44144;BME280;68165;51.920;4.492;2023-05-22T08:21:37;68532.63;;;24.14;66.10
44144;BME280;68165;51.920;4.492;2023-05-22T08:24:03;68554.22;;;24.36;65.36
44144;BME280;68165;51.920;4.492;2023-05-22T08:26:29;68573.25;;;24.51;64.65
44144;BME280;68165;51.920;4.492;2023-05-22T08:28:54;68590.16;;;24.66;64.26
44144;BME280;68165;51.920;4.492;2023-05-22T08:31:21;68597.06;;;24.74;63.57
44144;BME280;68165;51.920;4.492;2023-05-22T08:33:46;68664.66;;;25.33;61.73
44144;BME280;68165;51.920;4.492;2023-05-22T08:36:12;68644.91;;;25.15;61.54
44144;BME280;68165;51.920;4.492;2023-05-22T08:38:39;68647.16;;;25.17;62.17
44144;BME280;68165;51.920;4.492;2023-05-22T08:41:05;68660.00;;;25.26;61.46
44144;BME280;68165;51.920;4.492;2023-05-22T08:43:32;68680.31;;;25.44;60.28
44144;BME280;68165;51.920;4.492;2023-05-22T08:46:02;68674.81;;;25.42;60.18
44144;BME280;68165;51.920;4.492;2023-05-22T08:48:29;68686.97;;;25.57;59.47
44144;BME280;68165;51.920;4.492;2023-05-22T08:50:57;68697.28;;;25.59;59.42
44144;BME280;68165;51.920;4.492;2023-05-22T08:53:27;68701.50;;;25.68;59.46
44144;BME280;68165;51.920;4.492;2023-05-22T08:55:53;68713.78;;;25.77;58.98
44144;BME280;68165;51.920;4.492;2023-05-22T08:58:19;68722.81;;;25.85;58.26
44144;BME280;68165;51.920;4.492;2023-05-22T09:00:45;68737.47;;;25.98;57.32
44144;BME280;68165;51.920;4.492;2023-05-22T09:03:10;68720.81;;;25.88;57.29
44144;BME280;68165;51.920;4.492;2023-05-22T09:05:38;68737.94;;;25.96;57.42
44144;BME280;68165;51.920;4.492;2023-05-22T09:08:04;68780.00;;;26.38;55.90
44144;BME280;68165;51.920;4.492;2023-05-22T09:10:32;68755.56;;;26.14;56.19
44144;BME280;68165;51.920;4.492;2023-05-22T09:13:08;68759.38;;;26.15;56.75
44144;BME280;68165;51.920;4.492;2023-05-22T09:15:36;68755.56;;;26.14;56.52
44144;BME280;68165;51.920;4.492;2023-05-22T09:18:02;68760.06;;;26.18;55.95
44144;BME280;68165;51.920;4.492;2023-05-22T09:20:28;68764.75;;;26.25;55.95
44144;BME280;68165;51.920;4.492;2023-05-22T09:22:53;68794.56;;;26.49;55.21
44144;BME280;68165;51.920;4.492;2023-05-22T09:25:21;68826.06;;;26.75;54.07
44144;BME280;68165;51.920;4.492;2023-05-22T09:27:49;68848.66;;;26.95;53.91
44144;BME280;68165;51.920;4.492;2023-05-22T09:30:18;68881.69;;;27.30;52.46
44144;BME280;68165;51.920;4.492;2023-05-22T09:32:45;68945.34;;;27.82;50.86
44144;BME280;68165;51.920;4.492;2023-05-22T09:35:12;68947.84;;;27.89;49.80
44144;BME280;68165;51.920;4.492;2023-05-22T09:37:38;68900.66;;;27.42;50.64
44144;BME280;68165;51.920;4.492;2023-05-22T09:40:07;68894.00;;;27.38;51.07
44144;BME280;68165;51.920;4.492;2023-05-22T09:42:35;68863.50;;;27.11;52.18
44144;BME280;68165;51.920;4.492;2023-05-22T09:45:04;68862.94;;;27.10;52.00
44144;BME280;68165;51.920;4.492;2023-05-22T09:47:31;68827.31;;;26.78;52.92
44144;BME280;68165;51.920;4.492;2023-05-22T09:49:59;68803.44;;;26.55;53.54
44144;BME280;68165;51.920;4.492;2023-05-22T09:52:32;68774.22;;;26.31;54.80
44144;BME280;68165;51.920;4.492;2023-05-22T09:55:01;68756.81;;;26.18;55.24
44144;BME280;68165;51.920;4.492;2023-05-22T09:57:30;68740.16;;;25.98;55.92
44144;BME280;68165;51.920;4.492;2023-05-22T09:59:57;68740.88;;;26.01;56.25
44144;BME280;68165;51.920;4.492;2023-05-22T10:02:25;68735.66;;;25.94;56.30
44144;BME280;68165;51.920;4.492;2023-05-22T10:04:50;68744.81;;;26.05;55.52
44144;BME280;68165;51.920;4.492;2023-05-22T10:07:19;68768.44;;;26.23;55.63
44144;BME280;68165;51.920;4.492;2023-05-22T10:10:01;68775.91;;;26.32;54.69
44144;BME280;68165;51.920;4.492;2023-05-22T10:12:32;68775.47;;;26.34;55.13
44144;BME280;68165;51.920;4.492;2023-05-22T10:14:59;68782.25;;;26.40;54.69
44144;BME280;68165;51.920;4.492;2023-05-22T10:17:25;68810.50;;;26.66;54.13
44144;BME280;68165;51.920;4.492;2023-05-22T10:19:52;68808.22;;;26.64;54.30
44144;BME280;68165;51.920;4.492;2023-05-22T10:22:20;68807.25;;;26.65;53.97
44144;BME280;68165;51.920;4.492;2023-05-22T10:24:49;68860.66;;;27.08;53.36
44144;BME280;68165;51.920;4.492;2023-05-22T10:27:16;68818.41;;;26.73;53.54
44144;BME280;68165;51.920;4.492;2023-05-22T10:30:09;68822.22;;;26.74;53.94
44144;BME280;68165;51.920;4.492;2023-05-22T10:32:43;68806.84;;;26.58;54.43
44144;BME280;68165;51.920;4.492;2023-05-22T10:35:28;68827.31;;;26.78;54.42
44144;BME280;68165;51.920;4.492;2023-05-22T10:38:13;68842.59;;;26.92;53.87
44144;BME280;68165;51.920;4.492;2023-05-22T10:40:44;68853.88;;;27.02;53.31
44144;BME280;68165;51.920;4.492;2023-05-22T10:43:10;68857.97;;;27.08;52.49
44144;BME280;68165;51.920;4.492;2023-05-22T10:45:35;68872.53;;;27.19;52.70
44144;BME280;68165;51.920;4.492;2023-05-22T10:48:05;68889.34;;;27.32;52.53
44144;BME280;68165;51.920;4.492;2023-05-22T10:50:31;68894.69;;;27.41;52.13
44144;BME280;68165;51.920;4.492;2023-05-22T10:53:16;68908.44;;;27.56;51.04
44144;BME280;68165;51.920;4.492;2023-05-22T10:55:47;68908.16;;;27.51;50.78
44144;BME280;68165;51.920;4.492;2023-05-22T10:58:13;68904.75;;;27.48;50.83
44144;BME280;68165;51.920;4.492;2023-05-22T11:00:39;68904.75;;;27.48;50.40
44144;BME280;68165;51.920;4.492;2023-05-22T11:03:05;68904.63;;;27.45;50.26
44144;BME280;68165;51.920;4.492;2023-05-22T11:08:11;68888.94;;;27.34;51.16
44144;BME280;68165;51.920;4.492;2023-05-22T11:10:56;68892.31;;;27.37;51.01
44144;BME280;68165;51.920;4.492;2023-05-22T11:13:25;68897.28;;;27.39;50.87
44144;BME280;68165;51.920;4.492;2023-05-22T11:15:53;68902.78;;;27.41;50.64
44144;BME280;68165;51.920;4.492;2023-05-22T11:18:20;68902.03;;;27.48;50.50
44144;BME280;68165;51.920;4.492;2023-05-22T11:20:46;68902.50;;;27.46;50.60
44144;BME280;68165;51.920;4.492;2023-05-22T11:23:11;68900.78;;;27.44;50.17
44144;BME280;68165;51.920;4.492;2023-05-22T11:25:39;68905.88;;;27.49;50.39
44144;BME280;68165;51.920;4.492;2023-05-22T11:28:05;68909.88;;;27.52;50.07
44144;BME280;68165;51.920;4.492;2023-05-22T11:30:31;68914.38;;;27.56;50.24
44144;BME280;68165;51.920;4.492;2023-05-22T11:32:58;68908.16;;;27.51;50.14
44144;BME280;68165;51.920;4.492;2023-05-22T11:35:24;68906.59;;;27.52;50.38
44144;BME280;68165;51.920;4.492;2023-05-22T11:37:51;68912.09;;;27.54;50.31
44144;BME280;68165;51.920;4.492;2023-05-22T11:40:18;68919.88;;;27.59;50.16
44144;BME280;68165;51.920;4.492;2023-05-22T11:42:45;68919.03;;;27.63;49.65
44144;BME280;68165;51.920;4.492;2023-05-22T11:45:11;68923.56;;;27.67;49.84
44144;BME280;68165;51.920;4.492;2023-05-22T11:47:36;68925.25;;;27.69;49.36
44144;BME280;68165;51.920;4.492;2023-05-22T11:50:03;68920.03;;;27.61;49.69
44144;BME280;68165;51.920;4.492;2023-05-22T11:52:31;68925.09;;;27.66;49.38
44144;BME280;68165;51.920;4.492;2023-05-22T11:54:57;68925.00;;;27.64;49.25
44144;BME280;68165;51.920;4.492;2023-05-22T11:57:23;68910.56;;;27.55;49.72
44144;BME280;68165;51.920;4.492;2023-05-22T11:59:48;68909.88;;;27.52;49.48
44144;BME280;68165;51.920;4.492;2023-05-22T12:02:18;68897.97;;;27.42;49.78
44144;BME280;68165;51.920;4.492;2023-05-22T12:04:44;68897.38;;;27.41;49.77
44144;BME280;68165;51.920;4.492;2023-05-22T12:07:09;68898.66;;;27.45;50.05
44144;BME280;68165;51.920;4.492;2023-05-22T12:09:39;68903.19;;;27.49;50.22
44144;BME280;68165;51.920;4.492;2023-05-22T12:12:04;68907.00;;;27.50;49.96
44144;BME280;68165;51.920;4.492;2023-05-22T12:14:30;68913.81;;;27.56;49.67
44144;BME280;68165;51.920;4.492;2023-05-22T12:17:00;68916.50;;;27.56;49.93
44144;BME280;68165;51.920;4.492;2023-05-22T12:19:26;68909.28;;;27.52;49.59
44144;BME280;68165;51.920;4.492;2023-05-22T12:21:52;68905.88;;;27.49;50.13
44144;BME280;68165;51.920;4.492;2023-05-22T12:24:18;68908.16;;;27.51;50.11
44144;BME280;68165;51.920;4.492;2023-05-22T12:26:52;68910.97;;;27.53;50.05
44144;BME280;68165;51.920;4.492;2023-05-22T12:29:20;68900.50;;;27.49;49.51
44144;BME280;68165;51.920;4.492;2023-05-22T12:31:46;68897.38;;;27.41;49.83
44144;BME280;68165;51.920;4.492;2023-05-22T12:34:11;68888.94;;;27.34;50.07
44144;BME280;68165;51.920;4.492;2023-05-22T12:36:39;68878.88;;;27.27;50.01
44144;BME280;68165;51.920;4.492;2023-05-22T12:39:15;68884.41;;;27.30;50.37
44144;BME280;68165;51.920;4.492;2023-05-22T12:41:42;68874.78;;;27.21;50.33
44144;BME280;68165;51.920;4.492;2023-05-22T12:44:07;68884.97;;;27.30;50.64
44144;BME280;68165;51.920;4.492;2023-05-22T12:46:33;68886.09;;;27.31;50.18
44144;BME280;68165;51.920;4.492;2023-05-22T12:48:59;68881.00;;;27.27;50.12
44144;BME280;68165;51.920;4.492;2023-05-22T12:51:26;68873.81;;;27.23;50.45
44144;BME280;68165;51.920;4.492;2023-05-22T12:53:54;68885.53;;;27.31;50.57
44144;BME280;68165;51.920;4.492;2023-05-22T12:56:20;68883.81;;;27.29;51.12
44144;BME280;68165;51.920;4.492;2023-05-22T12:58:46;68882.28;;;27.30;50.86
44144;BME280;68165;51.920;4.492;2023-05-22T13:01:11;68886.09;;;27.31;51.32
44144;BME280;68165;51.920;4.492;2023-05-22T13:03:37;68900.78;;;27.44;51.02
44144;BME280;68165;51.920;4.492;2023-05-22T13:06:02;68917.19;;;27.59;50.92
44144;BME280;68165;51.920;4.492;2023-05-22T13:08:27;68917.19;;;27.59;50.53
44144;BME280;68165;51.920;4.492;2023-05-22T13:10:53;68897.69;;;27.46;50.78
44144;BME280;68165;51.920;4.492;2023-05-22T13:13:18;68912.56;;;27.52;50.67